Time,TemperatureF,DewpointF,PressureIn,WindDirection,WindDirectionDegrees,WindSpeedMPH,WindSpeedGustMPH,Humidity,HourlyPrecipIn,Conditions,Clouds,dailyrainin,SoftwareType,DateUTC
2013-07-31 00:00:00,63.0,56.7,30.11,NNE,20,0.0,0.0,80,0.00,,---,0.00,VWS V14.01,2013-07-31 07:00:00,
2013-07-31 00:02:00,63.0,56.7,30.11,NNE,20,0.0,0.0,80,0.00,,---,0.00,VWS V14.01,2013-07-31 07:02:00,
2013-07-31 00:07:00,62.9,56.6,30.11,NNE,19,0.0,0.0,80,0.00,,---,0.00,VWS V14.01,2013-07-31 07:07:00,
2013-07-31 00:12:00,62.8,56.5,30.11,NNE,20,0.0,0.0,80,0.00,,---,0.00,VWS V14.01,2013-07-31 07:12:00,
2013-07-31 00:15:00,62.6,56.3,30.11,NNE,20,0.0,0.0,80,0.00,,---,0.00,VWS V14.01,2013-07-31 07:15:00,
2013-07-31 00:17:00,62.6,56.7,30.11,NNE,20,0.0,0.0,81,0.00,,---,0.00,VWS V14.01,2013-07-31 07:17:00,
2013-07-31 00:22:00,62.5,56.6,30.11,NNE,19,0.0,0.0,81,0.00,,---,0.00,VWS V14.01,2013-07-31 07:22:00,
2013-07-31 00:27:00,62.4,56.5,30.11,NNE,19,0.0,0.0,81,0.00,,---,0.00,VWS V14.01,2013-07-31 07:27:00,
2013-07-31 00:30:00,62.3,56.4,30.11,NNE,20,0.0,0.0,81,0.00,,---,0.00,VWS V14.01,2013-07-31 07:30:00,
2013-07-31 00:32:00,62.3,56.4,30.12,NNE,20,0.0,0.0,81,0.00,,---,0.00,VWS V14.01,2013-07-31 07:32:00,
2013-07-31 00:37:00,62.2,56.6,30.12,NNE,19,0.0,0.0,82,0.00,,---,0.00,VWS V14.01,2013-07-31 07:37:00,
2013-07-31 00:42:00,62.2,56.6,30.12,NNE,19,0.0,0.0,82,0.00,,---,0.00,VWS V14.01,2013-07-31 07:42:00,
2013-07-31 00:45:00,62.2,56.7,30.12,NNE,19,0.0,0.0,82,0.00,,---,0.00,VWS V14.01,2013-07-31 07:45:00,
2013-07-31 00:47:00,62.2,56.6,30.12,NNE,19,0.0,0.0,82,0.00,,---,0.00,VWS V14.01,2013-07-31 07:47:00,
2013-07-31 00:52:00,62.2,56.6,30.12,NNE,19,0.0,0.0,82,0.00,,---,0.00,VWS V14.01,2013-07-31 07:52:00,
2013-07-31 00:57:00,62.2,56.6,30.12,NNE,19,0.0,0.0,82,0.00,,---,0.00,VWS V14.01,2013-07-31 07:57:00,
2013-07-31 01:00:00,62.2,56.7,30.12,NNE,19,0.0,0.0,82,0.00,,---,0.00,VWS V14.01,2013-07-31 08:00:00,
2013-07-31 01:02:00,62.2,56.6,30.12,NNE,19,0.0,0.0,82,0.00,,---,0.00,VWS V14.01,2013-07-31 08:02:00,
2013-07-31 01:07:00,62.0,56.5,30.12,North,355,0.0,0.0,82,0.00,,---,0.00,VWS V14.01,2013-07-31 08:07:00,
2013-07-31 01:12:00,61.6,56.1,30.12,North,355,0.0,0.0,82,0.00,,---,0.00,VWS V14.01,2013-07-31 08:12:00,
2013-07-31 01:15:00,61.1,55.6,30.12,North,355,0.0,0.0,82,0.00,,---,0.00,VWS V14.01,2013-07-31 08:15:00,
2013-07-31 01:17:00,61.1,55.9,30.12,North,355,0.0,0.0,83,0.00,,---,0.00,VWS V14.01,2013-07-31 08:17:00,
2013-07-31 01:22:00,60.0,55.5,30.12,WSW,253,0.0,0.0,85,0.00,,---,0.00,VWS V14.01,2013-07-31 08:22:00,
2013-07-31 01:27:00,59.4,55.2,30.12,West,264,0.0,0.0,86,0.00,,---,0.00,VWS V14.01,2013-07-31 08:27:00,
2013-07-31 01:30:00,59.1,55.2,30.12,West,264,0.0,0.0,87,0.00,,---,0.00,VWS V14.01,2013-07-31 08:30:00,
2013-07-31 01:32:00,59.1,55.2,30.12,West,264,0.0,0.0,87,0.00,,---,0.00,VWS V14.01,2013-07-31 08:32:00,
2013-07-31 01:37:00,59.0,55.1,30.13,West,269,0.0,0.0,87,0.00,,---,0.00,VWS V14.01,2013-07-31 08:37:00,
2013-07-31 01:42:00,58.2,55.0,30.13,West,259,0.0,0.0,89,0.00,,---,0.00,VWS V14.01,2013-07-31 08:42:00,
2013-07-31 01:45:00,57.8,54.9,30.13,West,278,0.0,0.0,90,0.00,,---,0.00,VWS V14.01,2013-07-31 08:45:00,
2013-07-31 01:47:00,57.8,54.9,30.13,WSW,246,0.0,0.0,90,0.00,,---,0.00,VWS V14.01,2013-07-31 08:47:00,
2013-07-31 01:52:00,57.8,54.9,30.13,West,278,0.0,0.0,90,0.00,,---,0.00,VWS V14.01,2013-07-31 08:52:00,
2013-07-31 01:57:00,57.9,55.0,30.13,WSW,258,0.0,0.0,90,0.00,,---,0.00,VWS V14.01,2013-07-31 08:57:00,
2013-07-31 02:00:00,58.0,55.1,30.13,WSW,256,0.0,0.0,90,0.00,,---,0.00,VWS V14.01,2013-07-31 09:00:00,
2013-07-31 02:02:00,58.0,55.1,30.13,WSW,256,0.0,0.0,90,0.00,,---,0.00,VWS V14.01,2013-07-31 09:02:00,
2013-07-31 02:07:00,58.2,55.3,30.13,WSW,257,0.0,0.0,90,0.00,,---,0.00,VWS V14.01,2013-07-31 09:07:00,
2013-07-31 02:12:00,58.3,55.4,30.13,WSW,238,0.0,0.0,90,0.00,,---,0.00,VWS V14.01,2013-07-31 09:12:00,
2013-07-31 02:15:00,58.4,55.5,30.13,WSW,250,0.0,0.0,90,0.00,,---,0.00,VWS V14.01,2013-07-31 09:15:00,
2013-07-31 02:17:00,58.4,55.5,30.13,WSW,250,0.0,0.0,90,0.00,,---,0.00,VWS V14.01,2013-07-31 09:17:00,
2013-07-31 02:22:00,58.4,55.5,30.13,WSW,256,0.0,0.0,90,0.00,,---,0.00,VWS V14.01,2013-07-31 09:22:00,
2013-07-31 02:27:00,58.4,55.5,30.13,West,265,0.0,0.0,90,0.00,,---,0.00,VWS V14.01,2013-07-31 09:27:00,
2013-07-31 02:30:00,58.4,55.8,30.13,West,263,0.0,0.0,91,0.00,,---,0.00,VWS V14.01,2013-07-31 09:30:00,
2013-07-31 02:32:00,58.3,55.7,30.13,West,263,0.0,0.0,91,0.00,,---,0.00,VWS V14.01,2013-07-31 09:32:00,
2013-07-31 02:37:00,58.3,55.7,30.12,West,259,0.0,0.0,91,0.00,,---,0.00,VWS V14.01,2013-07-31 09:37:00,
2013-07-31 02:42:00,58.2,55.9,30.12,West,277,0.0,0.0,92,0.00,,---,0.00,VWS V14.01,2013-07-31 09:42:00,
2013-07-31 02:45:00,58.1,55.8,30.12,West,277,0.0,0.0,92,0.00,,---,0.00,VWS V14.01,2013-07-31 09:45:00,
2013-07-31 02:47:00,58.2,55.9,30.12,West,277,0.0,0.0,92,0.00,,---,0.00,VWS V14.01,2013-07-31 09:47:00,
2013-07-31 02:52:00,58.1,55.8,30.13,West,274,0.0,0.0,92,0.00,,---,0.00,VWS V14.01,2013-07-31 09:52:00,
2013-07-31 02:57:00,58.1,55.8,30.12,West,273,0.0,0.0,92,0.00,,---,0.00,VWS V14.01,2013-07-31 09:57:00,
2013-07-31 03:00:00,58.2,55.9,30.13,West,273,0.0,0.0,92,0.00,,---,0.00,VWS V14.01,2013-07-31 10:00:00,
2013-07-31 03:02:00,58.2,55.9,30.13,West,273,0.0,0.0,92,0.00,,---,0.00,VWS V14.01,2013-07-31 10:02:00,
2013-07-31 03:07:00,58.3,56.0,30.13,West,273,0.0,0.0,92,0.00,,---,0.00,VWS V14.01,2013-07-31 10:07:00,
2013-07-31 03:12:00,58.2,55.9,30.12,West,271,0.0,0.0,92,0.00,,---,0.00,VWS V14.01,2013-07-31 10:12:00,
2013-07-31 03:15:00,58.2,55.9,30.12,West,271,0.0,0.0,92,0.00,,---,0.00,VWS V14.01,2013-07-31 10:15:00,
2013-07-31 03:17:00,58.3,56.0,30.12,West,271,0.0,0.0,92,0.00,,---,0.00,VWS V14.01,2013-07-31 10:17:00,
2013-07-31 03:22:00,58.3,56.0,30.12,West,273,0.0,0.0,92,0.00,,---,0.00,VWS V14.01,2013-07-31 10:22:00,
2013-07-31 03:27:00,58.3,56.0,30.13,West,273,0.0,0.0,92,0.00,,---,0.00,VWS V14.01,2013-07-31 10:27:00,
2013-07-31 03:30:00,58.3,56.0,30.13,West,273,0.0,0.0,92,0.00,,---,0.00,VWS V14.01,2013-07-31 10:30:00,
2013-07-31 03:32:00,58.3,56.0,30.13,West,273,0.0,0.0,92,0.00,,---,0.00,VWS V14.01,2013-07-31 10:32:00,
2013-07-31 03:37:00,58.2,55.9,30.13,West,267,0.0,0.0,92,0.00,,---,0.00,VWS V14.01,2013-07-31 10:37:00,
2013-07-31 03:42:00,58.2,55.9,30.13,West,266,0.0,0.0,92,0.00,,---,0.00,VWS V14.01,2013-07-31 10:42:00,
2013-07-31 03:45:00,58.1,55.8,30.12,West,266,0.0,0.0,92,0.00,,---,0.00,VWS V14.01,2013-07-31 10:45:00,
2013-07-31 03:47:00,58.1,55.8,30.12,West,266,0.0,0.0,92,0.00,,---,0.00,VWS V14.01,2013-07-31 10:47:00,
2013-07-31 03:52:00,58.1,55.8,30.12,West,266,0.0,0.0,92,0.00,,---,0.00,VWS V14.01,2013-07-31 10:52:00,
2013-07-31 03:57:00,58.1,56.1,30.12,West,266,0.0,0.0,93,0.00,,---,0.00,VWS V14.01,2013-07-31 10:57:00,
2013-07-31 04:00:00,58.1,56.1,30.12,West,266,0.0,0.0,93,0.00,,---,0.00,VWS V14.01,2013-07-31 11:00:00,
2013-07-31 04:02:00,58.1,56.1,30.12,West,266,0.0,0.0,93,0.00,,---,0.00,VWS V14.01,2013-07-31 11:02:00,
2013-07-31 04:07:00,58.2,55.9,30.12,West,266,0.0,0.0,92,0.00,,---,0.00,VWS V14.01,2013-07-31 11:07:00,
2013-07-31 04:12:00,58.1,55.8,30.12,West,266,0.0,0.0,92,0.00,,---,0.00,VWS V14.01,2013-07-31 11:12:00,
2013-07-31 04:15:00,58.0,55.7,30.12,West,266,0.0,0.0,92,0.00,,---,0.00,VWS V14.01,2013-07-31 11:15:00,
2013-07-31 04:17:00,58.0,56.0,30.12,West,266,0.0,0.0,93,0.00,,---,0.00,VWS V14.01,2013-07-31 11:17:00,
2013-07-31 04:22:00,57.6,55.6,30.12,WSW,254,0.0,0.0,93,0.00,,---,0.00,VWS V14.01,2013-07-31 11:22:00,
2013-07-31 04:27:00,57.2,55.2,30.12,WSW,257,0.0,0.0,93,0.00,,---,0.00,VWS V14.01,2013-07-31 11:27:00,
2013-07-31 04:30:00,56.9,55.2,30.13,WSW,258,0.0,0.0,94,0.00,,---,0.00,VWS V14.01,2013-07-31 11:30:00,
2013-07-31 04:32:00,56.9,55.2,30.13,West,260,0.0,0.0,94,0.00,,---,0.00,VWS V14.01,2013-07-31 11:32:00,
2013-07-31 04:37:00,56.9,55.5,30.13,West,261,0.0,0.0,95,0.00,,---,0.00,VWS V14.01,2013-07-31 11:37:00,
2013-07-31 04:42:00,56.6,55.2,30.12,West,263,0.0,0.0,95,0.00,,---,0.00,VWS V14.01,2013-07-31 11:42:00,
2013-07-31 04:45:00,56.4,55.0,30.12,West,264,0.0,0.0,95,0.00,,---,0.00,VWS V14.01,2013-07-31 11:45:00,
2013-07-31 04:47:00,56.4,55.0,30.12,WSW,257,0.0,0.0,95,0.00,,---,0.00,VWS V14.01,2013-07-31 11:47:00,
2013-07-31 04:52:00,56.2,55.1,30.12,West,265,0.0,0.0,96,0.00,,---,0.00,VWS V14.01,2013-07-31 11:52:00,
2013-07-31 04:57:00,56.1,55.0,30.12,West,269,0.0,0.0,96,0.00,,---,0.00,VWS V14.01,2013-07-31 11:57:00,
2013-07-31 05:00:00,55.9,54.8,30.12,WSW,252,0.0,0.0,96,0.00,,---,0.00,VWS V14.01,2013-07-31 12:00:00,
2013-07-31 05:02:00,55.9,54.8,30.12,WSW,251,0.0,0.0,96,0.00,,---,0.00,VWS V14.01,2013-07-31 12:02:00,
2013-07-31 05:07:00,55.6,54.5,30.12,WSW,244,0.0,0.0,96,0.00,,---,0.00,VWS V14.01,2013-07-31 12:07:00,
2013-07-31 05:12:00,55.5,54.7,30.13,West,259,0.0,0.0,97,0.00,,---,0.00,VWS V14.01,2013-07-31 12:12:00,
2013-07-31 05:15:00,55.4,54.6,30.12,West,260,0.0,0.0,97,0.00,,---,0.00,VWS V14.01,2013-07-31 12:15:00,
2013-07-31 05:17:00,55.4,54.6,30.12,West,260,0.0,0.0,97,0.00,,---,0.00,VWS V14.01,2013-07-31 12:17:00,
2013-07-31 05:22:00,55.3,54.5,30.12,West,260,0.0,0.0,97,0.00,,---,0.00,VWS V14.01,2013-07-31 12:22:00,
2013-07-31 05:27:00,55.3,54.5,30.12,West,273,0.0,0.0,97,0.00,,---,0.00,VWS V14.01,2013-07-31 12:27:00,
2013-07-31 05:30:00,55.3,54.5,30.12,West,271,0.0,0.0,97,0.00,,---,0.00,VWS V14.01,2013-07-31 12:30:00,
2013-07-31 05:32:00,55.3,54.5,30.12,West,267,0.0,0.0,97,0.00,,---,0.00,VWS V14.01,2013-07-31 12:32:00,
2013-07-31 05:37:00,55.4,54.8,30.13,West,267,0.0,0.0,98,0.00,,---,0.00,VWS V14.01,2013-07-31 12:37:00,
2013-07-31 05:42:00,55.4,54.8,30.13,West,267,0.0,0.0,98,0.00,,---,0.00,VWS V14.01,2013-07-31 12:42:00,
2013-07-31 05:45:00,55.4,54.8,30.13,WSW,257,0.0,0.0,98,0.00,,---,0.00,VWS V14.01,2013-07-31 12:45:00,
2013-07-31 05:47:00,55.4,54.8,30.13,WSW,257,0.0,0.0,98,0.00,,---,0.00,VWS V14.01,2013-07-31 12:47:00,
2013-07-31 05:52:00,55.4,54.8,30.13,West,267,0.0,0.0,98,0.00,,---,0.00,VWS V14.01,2013-07-31 12:52:00,
2013-07-31 05:57:00,55.3,54.8,30.13,WNW,283,0.0,0.0,98,0.00,,---,0.00,VWS V14.01,2013-07-31 12:57:00,
2013-07-31 06:00:00,55.3,54.8,30.13,West,263,0.0,0.0,98,0.00,,---,0.00,VWS V14.01,2013-07-31 13:00:00,
2013-07-31 06:02:00,55.3,54.8,30.13,WSW,256,0.0,0.0,98,0.00,,---,0.00,VWS V14.01,2013-07-31 13:02:00,
2013-07-31 06:07:00,55.1,54.5,30.13,WNW,289,0.0,0.0,98,0.00,,---,0.00,VWS V14.01,2013-07-31 13:07:00,
2013-07-31 06:12:00,55.2,54.7,30.13,WNW,285,0.0,0.0,98,0.00,,---,0.00,VWS V14.01,2013-07-31 13:12:00,
2013-07-31 06:15:00,55.3,54.8,30.13,West,280,0.0,0.0,98,0.00,,---,0.00,VWS V14.01,2013-07-31 13:15:00,
2013-07-31 06:17:00,55.3,54.8,30.13,WNW,288,0.0,0.0,98,0.00,,---,0.00,VWS V14.01,2013-07-31 13:17:00,
2013-07-31 06:22:00,55.2,54.7,30.13,West,261,0.0,0.0,98,0.00,,---,0.00,VWS V14.01,2013-07-31 13:22:00,
2013-07-31 06:27:00,55.1,54.5,30.13,West,268,0.0,0.0,98,0.00,,---,0.00,VWS V14.01,2013-07-31 13:27:00,
2013-07-31 06:30:00,55.1,54.5,30.13,West,267,0.0,0.0,98,0.00,,---,0.00,VWS V14.01,2013-07-31 13:30:00,
2013-07-31 06:32:00,55.1,54.5,30.13,WNW,284,0.0,0.0,98,0.00,,---,0.00,VWS V14.01,2013-07-31 13:32:00,
2013-07-31 06:37:00,55.0,54.5,30.13,West,272,0.0,0.0,98,0.00,,---,0.00,VWS V14.01,2013-07-31 13:37:00,
2013-07-31 06:42:00,55.2,54.7,30.13,West,279,0.0,0.0,98,0.00,,---,0.00,VWS V14.01,2013-07-31 13:42:00,
2013-07-31 06:45:00,55.2,54.7,30.13,WSW,238,0.0,0.0,98,0.00,,---,0.00,VWS V14.01,2013-07-31 13:45:00,
2013-07-31 06:47:00,55.3,54.8,30.13,WSW,238,0.0,0.0,98,0.00,,---,0.00,VWS V14.01,2013-07-31 13:47:00,
2013-07-31 06:52:00,55.3,54.8,30.13,WSW,240,0.0,0.0,98,0.00,,---,0.00,VWS V14.01,2013-07-31 13:52:00,
2013-07-31 06:57:00,55.3,54.8,30.13,WSW,248,0.0,0.0,98,0.00,,---,0.00,VWS V14.01,2013-07-31 13:57:00,
2013-07-31 07:00:00,55.3,54.8,30.13,West,271,0.0,0.0,98,0.00,,---,0.00,VWS V14.01,2013-07-31 14:00:00,
2013-07-31 07:02:00,55.4,54.8,30.13,West,272,0.0,0.0,98,0.00,,---,0.00,VWS V14.01,2013-07-31 14:02:00,
2013-07-31 07:07:00,55.4,54.8,30.13,West,266,0.0,0.0,98,0.00,,---,0.00,VWS V14.01,2013-07-31 14:07:00,
2013-07-31 07:12:00,55.4,55.1,30.13,West,269,0.0,0.0,99,0.00,,---,0.00,VWS V14.01,2013-07-31 14:12:00,
2013-07-31 07:15:00,55.4,54.8,30.14,West,281,0.0,0.0,98,0.00,,---,0.00,VWS V14.01,2013-07-31 14:15:00,
2013-07-31 07:17:00,55.4,54.8,30.14,West,281,0.0,0.0,98,0.00,,---,0.00,VWS V14.01,2013-07-31 14:17:00,
2013-07-31 07:22:00,55.4,55.1,30.14,WSW,256,0.0,0.0,99,0.00,,---,0.00,VWS V14.01,2013-07-31 14:22:00,
2013-07-31 07:27:00,55.5,55.2,30.14,WSW,257,0.0,0.0,99,0.00,,---,0.00,VWS V14.01,2013-07-31 14:27:00,
2013-07-31 07:30:00,55.4,54.8,30.14,West,275,0.0,0.0,98,0.00,,---,0.00,VWS V14.01,2013-07-31 14:30:00,
2013-07-31 07:32:00,55.3,54.8,30.14,West,275,0.0,0.0,98,0.00,,---,0.00,VWS V14.01,2013-07-31 14:32:00,
2013-07-31 07:37:00,55.4,54.8,30.14,WSW,248,0.0,0.0,98,0.00,,---,0.00,VWS V14.01,2013-07-31 14:37:00,
2013-07-31 07:42:00,55.4,54.8,30.14,West,264,0.0,0.0,98,0.00,,---,0.00,VWS V14.01,2013-07-31 14:42:00,
2013-07-31 07:45:00,55.4,54.8,30.14,West,264,0.0,0.0,98,0.00,,---,0.00,VWS V14.01,2013-07-31 14:45:00,
2013-07-31 07:47:00,55.4,54.8,30.14,West,264,0.0,0.0,98,0.00,,---,0.00,VWS V14.01,2013-07-31 14:47:00,
2013-07-31 07:52:00,55.4,55.1,30.13,West,269,0.0,0.0,99,0.00,,---,0.00,VWS V14.01,2013-07-31 14:52:00,
2013-07-31 07:57:00,55.4,54.8,30.14,West,263,0.0,0.0,98,0.00,,---,0.00,VWS V14.01,2013-07-31 14:57:00,
2013-07-31 08:00:00,55.3,54.8,30.13,West,273,0.0,0.0,98,0.00,,---,0.00,VWS V14.01,2013-07-31 15:00:00,
2013-07-31 08:02:00,55.3,54.8,30.13,West,269,0.0,0.0,98,0.00,,---,0.00,VWS V14.01,2013-07-31 15:02:00,
2013-07-31 08:07:00,55.4,54.8,30.14,WSW,244,0.0,0.0,98,0.00,,---,0.00,VWS V14.01,2013-07-31 15:07:00,
2013-07-31 08:12:00,55.4,55.1,30.14,SSW,213,0.0,0.0,99,0.00,,---,0.00,VWS V14.01,2013-07-31 15:12:00,
2013-07-31 08:15:00,55.4,55.1,30.14,West,261,0.0,0.0,99,0.00,,---,0.00,VWS V14.01,2013-07-31 15:15:00,
2013-07-31 08:17:00,55.4,55.1,30.14,West,261,0.0,0.0,99,0.00,,---,0.00,VWS V14.01,2013-07-31 15:17:00,
2013-07-31 08:22:00,55.4,55.1,30.14,West,269,0.0,0.0,99,0.00,,---,0.00,VWS V14.01,2013-07-31 15:22:00,
2013-07-31 08:27:00,55.3,55.0,30.14,West,267,0.0,0.0,99,0.00,,---,0.00,VWS V14.01,2013-07-31 15:27:00,
2013-07-31 08:30:00,55.3,55.0,30.14,West,273,0.0,0.0,99,0.00,,---,0.00,VWS V14.01,2013-07-31 15:30:00,
2013-07-31 08:32:00,55.3,55.0,30.14,WSW,242,0.0,0.0,99,0.00,,---,0.00,VWS V14.01,2013-07-31 15:32:00,
2013-07-31 08:37:00,55.4,55.1,30.14,WNW,284,0.0,0.0,99,0.00,,---,0.00,VWS V14.01,2013-07-31 15:37:00,
2013-07-31 08:42:00,55.3,55.0,30.14,West,259,0.0,0.0,99,0.00,,---,0.00,VWS V14.01,2013-07-31 15:42:00,
2013-07-31 08:45:00,55.4,55.1,30.14,West,259,0.0,0.0,99,0.00,,---,0.00,VWS V14.01,2013-07-31 15:45:00,
2013-07-31 08:47:00,55.3,55.0,30.14,WSW,237,0.0,0.0,99,0.00,,---,0.00,VWS V14.01,2013-07-31 15:47:00,
2013-07-31 08:52:00,55.3,55.0,30.14,West,259,0.0,0.0,99,0.00,,---,0.00,VWS V14.01,2013-07-31 15:52:00,
2013-07-31 08:57:00,55.3,55.0,30.14,West,274,0.0,0.0,99,0.00,,---,0.00,VWS V14.01,2013-07-31 15:57:00,
2013-07-31 09:00:00,55.4,55.1,30.14,West,263,0.0,0.0,99,0.00,,---,0.00,VWS V14.01,2013-07-31 16:00:00,
2013-07-31 09:02:00,55.4,55.1,30.14,West,263,0.0,0.0,99,0.00,,---,0.00,VWS V14.01,2013-07-31 16:02:00,
2013-07-31 09:07:00,55.4,55.1,30.14,West,264,0.0,0.0,99,0.00,,---,0.00,VWS V14.01,2013-07-31 16:07:00,
2013-07-31 09:12:00,55.5,55.2,30.13,WSW,257,0.0,0.0,99,0.00,,---,0.00,VWS V14.01,2013-07-31 16:12:00,
2013-07-31 09:15:00,55.6,55.3,30.13,West,271,0.0,0.0,99,0.00,,---,0.00,VWS V14.01,2013-07-31 16:15:00,
2013-07-31 09:17:00,55.6,55.3,30.13,West,271,0.0,0.0,99,0.00,,---,0.00,VWS V14.01,2013-07-31 16:17:00,
2013-07-31 09:22:00,55.5,55.2,30.13,WSW,251,0.0,0.0,99,0.00,,---,0.00,VWS V14.01,2013-07-31 16:22:00,
2013-07-31 09:27:00,55.5,55.2,30.13,NW,323,0.0,0.0,99,0.00,,---,0.00,VWS V14.01,2013-07-31 16:27:00,
2013-07-31 09:30:00,55.3,55.0,30.13,West,267,0.0,0.0,99,0.00,,---,0.00,VWS V14.01,2013-07-31 16:30:00,
2013-07-31 09:32:00,55.4,55.1,30.13,West,266,0.0,0.0,99,0.00,,---,0.00,VWS V14.01,2013-07-31 16:32:00,
2013-07-31 09:37:00,55.5,55.2,30.13,WSW,250,0.0,0.0,99,0.00,,---,0.00,VWS V14.01,2013-07-31 16:37:00,
2013-07-31 09:42:00,55.3,55.0,30.13,West,267,0.0,0.0,99,0.00,,---,0.00,VWS V14.01,2013-07-31 16:42:00,
2013-07-31 09:45:00,55.2,54.9,30.13,West,261,0.0,0.0,99,0.00,,---,0.00,VWS V14.01,2013-07-31 16:45:00,
2013-07-31 09:47:00,55.2,54.9,30.13,West,277,0.0,0.0,99,0.00,,---,0.00,VWS V14.01,2013-07-31 16:47:00,
2013-07-31 09:52:00,55.4,55.1,30.13,West,276,0.0,0.0,99,0.00,,---,0.00,VWS V14.01,2013-07-31 16:52:00,
2013-07-31 09:57:00,55.5,55.2,30.13,West,262,0.0,0.0,99,0.00,,---,0.00,VWS V14.01,2013-07-31 16:57:00,
2013-07-31 10:00:00,55.4,55.1,30.13,WSW,254,0.0,0.0,99,0.00,,---,0.00,VWS V14.01,2013-07-31 17:00:00,
2013-07-31 10:02:00,55.4,55.1,30.12,WSW,249,0.0,0.0,99,0.00,,---,0.00,VWS V14.01,2013-07-31 17:02:00,
2013-07-31 10:07:00,55.4,55.1,30.12,WSW,252,0.0,0.0,99,0.00,,---,0.00,VWS V14.01,2013-07-31 17:07:00,
2013-07-31 10:12:00,55.5,55.2,30.12,WSW,254,0.0,0.0,99,0.00,,---,0.00,VWS V14.01,2013-07-31 17:12:00,
2013-07-31 10:15:00,55.7,55.4,30.12,WSW,257,0.0,0.0,99,0.00,,---,0.00,VWS V14.01,2013-07-31 17:15:00,
2013-07-31 10:17:00,55.7,55.4,30.12,NW,308,0.0,0.0,99,0.00,,---,0.00,VWS V14.01,2013-07-31 17:17:00,
2013-07-31 10:22:00,55.5,55.2,30.12,WNW,291,0.0,0.0,99,0.00,,---,0.00,VWS V14.01,2013-07-31 17:22:00,
2013-07-31 10:27:00,55.6,55.3,30.12,West,261,0.0,0.0,99,0.00,,---,0.00,VWS V14.01,2013-07-31 17:27:00,
2013-07-31 10:30:00,55.4,55.1,30.12,WSW,257,0.0,0.0,99,0.00,,---,0.00,VWS V14.01,2013-07-31 17:30:00,
2013-07-31 10:32:00,55.5,55.2,30.12,West,271,0.0,0.0,99,0.00,,---,0.00,VWS V14.01,2013-07-31 17:32:00,
2013-07-31 10:37:00,55.4,55.1,30.12,WNW,295,0.0,0.0,99,0.00,,---,0.00,VWS V14.01,2013-07-31 17:37:00,
2013-07-31 10:42:00,55.4,55.1,30.12,West,274,0.0,0.0,99,0.00,,---,0.00,VWS V14.01,2013-07-31 17:42:00,
2013-07-31 10:45:00,55.6,55.3,30.12,WNW,300,0.0,0.0,99,0.00,,---,0.00,VWS V14.01,2013-07-31 17:45:00,
2013-07-31 10:47:00,55.7,55.4,30.12,West,270,0.0,0.0,99,0.00,,---,0.00,VWS V14.01,2013-07-31 17:47:00,
2013-07-31 10:52:00,55.6,55.3,30.12,WNW,299,0.0,0.0,99,0.00,,---,0.00,VWS V14.01,2013-07-31 17:52:00,
2013-07-31 10:57:00,55.5,55.2,30.12,WNW,287,0.0,0.0,99,0.00,,---,0.00,VWS V14.01,2013-07-31 17:57:00,
2013-07-31 11:00:00,55.5,55.2,30.12,WNW,283,0.0,0.0,99,0.00,,---,0.00,VWS V14.01,2013-07-31 18:00:00,
2013-07-31 11:02:00,55.4,55.1,30.11,West,269,0.0,0.0,99,0.00,,---,0.00,VWS V14.01,2013-07-31 18:02:00,
2013-07-31 11:07:00,55.6,55.3,30.11,West,278,0.0,0.0,99,0.00,,---,0.00,VWS V14.01,2013-07-31 18:07:00,
2013-07-31 11:12:00,55.6,55.3,30.11,West,266,0.0,0.0,99,0.00,,---,0.00,VWS V14.01,2013-07-31 18:12:00,
2013-07-31 11:15:00,55.7,55.4,30.11,NW,305,0.0,0.0,99,0.00,,---,0.00,VWS V14.01,2013-07-31 18:15:00,
2013-07-31 11:17:00,55.7,55.4,30.11,WNW,289,0.0,0.0,99,0.00,,---,0.00,VWS V14.01,2013-07-31 18:17:00,
2013-07-31 11:22:00,55.6,55.3,30.10,West,275,0.0,0.0,99,0.00,,---,0.00,VWS V14.01,2013-07-31 18:22:00,
2013-07-31 11:27:00,55.7,55.4,30.10,WNW,295,0.0,0.0,99,0.00,,---,0.00,VWS V14.01,2013-07-31 18:27:00,
2013-07-31 11:30:00,56.0,55.7,30.10,WSW,248,0.0,0.0,99,0.00,,---,0.00,VWS V14.01,2013-07-31 18:30:00,
2013-07-31 11:32:00,56.0,55.7,30.11,West,260,0.0,0.0,99,0.00,,---,0.00,VWS V14.01,2013-07-31 18:32:00,
2013-07-31 11:37:00,55.9,55.6,30.10,WSW,256,0.0,0.0,99,0.00,,---,0.00,VWS V14.01,2013-07-31 18:37:00,
2013-07-31 11:42:00,55.7,55.4,30.11,West,267,0.0,0.0,99,0.00,,---,0.00,VWS V14.01,2013-07-31 18:42:00,
2013-07-31 11:45:00,55.8,55.5,30.11,West,265,0.0,0.0,99,0.00,,---,0.00,VWS V14.01,2013-07-31 18:45:00,
2013-07-31 11:47:00,55.8,55.5,30.11,SW,231,0.0,0.0,99,0.00,,---,0.00,VWS V14.01,2013-07-31 18:47:00,
2013-07-31 11:52:00,55.9,55.6,30.10,WSW,257,0.0,0.0,99,0.00,,---,0.00,VWS V14.01,2013-07-31 18:52:00,
2013-07-31 11:57:00,56.0,55.7,30.10,West,275,0.0,0.0,99,0.00,,---,0.00,VWS V14.01,2013-07-31 18:57:00,
2013-07-31 12:00:00,56.2,55.9,30.10,WSW,248,0.0,0.0,99,0.00,,---,0.00,VWS V14.01,2013-07-31 19:00:00,
2013-07-31 12:02:00,56.3,56.0,30.10,West,265,0.0,0.0,99,0.00,,---,0.00,VWS V14.01,2013-07-31 19:02:00,
2013-07-31 12:07:00,56.6,56.3,30.10,WSW,252,0.0,0.0,99,0.00,,---,0.00,VWS V14.01,2013-07-31 19:07:00,
2013-07-31 12:12:00,56.8,56.5,30.10,West,275,0.0,0.0,99,0.00,,---,0.00,VWS V14.01,2013-07-31 19:12:00,
2013-07-31 12:15:00,56.7,56.4,30.10,WNW,301,0.0,0.0,99,0.00,,---,0.00,VWS V14.01,2013-07-31 19:15:00,
2013-07-31 12:17:00,56.8,56.5,30.10,WNW,301,0.0,0.0,99,0.00,,---,0.00,VWS V14.01,2013-07-31 19:17:00,
2013-07-31 12:22:00,57.1,56.5,30.10,West,259,0.0,0.0,98,0.00,,---,0.00,VWS V14.01,2013-07-31 19:22:00,
2013-07-31 12:27:00,57.6,57.0,30.10,West,267,0.0,0.0,98,0.00,,---,0.00,VWS V14.01,2013-07-31 19:27:00,
2013-07-31 12:30:00,57.7,57.1,30.10,WNW,303,0.0,0.0,98,0.00,,---,0.00,VWS V14.01,2013-07-31 19:30:00,
2013-07-31 12:32:00,57.7,57.1,30.10,West,261,0.0,0.0,98,0.00,,---,0.00,VWS V14.01,2013-07-31 19:32:00,
2013-07-31 12:37:00,57.6,56.5,30.10,WSW,246,0.0,0.0,96,0.00,,---,0.00,VWS V14.01,2013-07-31 19:37:00,
2013-07-31 12:42:00,58.0,56.9,30.09,WNW,301,0.0,0.0,96,0.00,,---,0.00,VWS V14.01,2013-07-31 19:42:00,
2013-07-31 12:45:00,58.0,56.6,30.09,West,281,0.0,0.0,95,0.00,,---,0.00,VWS V14.01,2013-07-31 19:45:00,
2013-07-31 12:47:00,58.0,56.6,30.10,WNW,298,0.0,0.0,95,0.00,,---,0.00,VWS V14.01,2013-07-31 19:47:00,
2013-07-31 12:52:00,58.2,56.5,30.09,SW,222,0.0,0.0,94,0.00,,---,0.00,VWS V14.01,2013-07-31 19:52:00,
2013-07-31 12:57:00,58.3,56.9,30.09,WNW,292,0.0,0.0,95,0.00,,---,0.00,VWS V14.01,2013-07-31 19:57:00,
2013-07-31 13:00:00,58.7,57.0,30.09,WNW,288,0.0,0.0,94,0.00,,---,0.00,VWS V14.01,2013-07-31 20:00:00,
2013-07-31 13:02:00,58.6,56.9,30.09,West,266,0.0,0.0,94,0.00,,---,0.00,VWS V14.01,2013-07-31 20:02:00,
2013-07-31 13:07:00,58.4,56.4,30.09,WNW,290,0.0,0.0,93,0.00,,---,0.00,VWS V14.01,2013-07-31 20:07:00,
2013-07-31 13:12:00,58.5,56.5,30.09,WNW,287,0.0,0.0,93,0.00,,---,0.00,VWS V14.01,2013-07-31 20:12:00,
2013-07-31 13:15:00,58.7,56.7,30.09,WNW,286,0.0,0.0,93,0.00,,---,0.00,VWS V14.01,2013-07-31 20:15:00,
2013-07-31 13:17:00,58.7,56.7,30.09,WNW,286,0.0,0.0,93,0.00,,---,0.00,VWS V14.01,2013-07-31 20:17:00,
2013-07-31 13:22:00,59.0,56.7,30.09,West,262,0.0,0.0,92,0.00,,---,0.00,VWS V14.01,2013-07-31 20:22:00,
2013-07-31 13:27:00,59.2,57.2,30.09,WNW,293,0.0,0.0,93,0.00,,---,0.00,VWS V14.01,2013-07-31 20:27:00,
2013-07-31 13:30:00,57.7,57.1,30.10,WNW,303,0.0,0.0,98,0.00,,---,0.00,VWS V14.01,2013-07-31 20:30:00,
2013-07-31 13:32:00,60.2,57.6,30.08,NNE,12,0.0,0.0,91,0.00,,---,0.00,VWS V14.01,2013-07-31 20:32:00,
2013-07-31 13:37:00,60.8,57.5,30.09,NW,317,0.0,0.0,89,0.00,,---,0.00,VWS V14.01,2013-07-31 20:37:00,
2013-07-31 13:42:00,61.0,57.7,30.09,West,281,0.0,0.0,89,0.00,,---,0.00,VWS V14.01,2013-07-31 20:42:00,
2013-07-31 13:45:00,58.0,56.6,30.09,West,281,0.0,0.0,95,0.00,,---,0.00,VWS V14.01,2013-07-31 20:45:00,
2013-07-31 13:47:00,61.2,57.3,30.09,West,270,0.0,0.0,87,0.00,,---,0.00,VWS V14.01,2013-07-31 20:47:00,
2013-07-31 13:52:00,61.6,57.7,30.08,West,277,0.0,0.0,87,0.00,,---,0.00,VWS V14.01,2013-07-31 20:52:00,
2013-07-31 13:57:00,61.4,57.5,30.08,West,278,0.0,0.0,87,0.00,,---,0.00,VWS V14.01,2013-07-31 20:57:00,
2013-07-31 14:00:00,61.6,57.7,30.08,WSW,250,0.0,0.0,87,0.00,,---,0.00,VWS V14.01,2013-07-31 21:00:00,
2013-07-31 14:02:00,61.5,57.3,30.08,WSW,250,0.0,0.0,86,0.00,,---,0.00,VWS V14.01,2013-07-31 21:02:00,
2013-07-31 14:07:00,61.1,57.2,30.08,WSW,257,0.0,0.0,87,0.00,,---,0.00,VWS V14.01,2013-07-31 21:07:00,
2013-07-31 14:12:00,61.0,57.4,30.08,West,261,0.0,0.0,88,0.00,,---,0.00,VWS V14.01,2013-07-31 21:12:00,
2013-07-31 14:15:00,60.9,57.3,30.08,West,263,0.0,0.0,88,0.00,,---,0.00,VWS V14.01,2013-07-31 21:15:00,
2013-07-31 14:17:00,60.9,57.6,30.08,West,273,0.0,0.0,89,0.00,,---,0.00,VWS V14.01,2013-07-31 21:17:00,
2013-07-31 14:22:00,61.8,57.9,30.08,West,273,0.0,0.0,87,0.00,,---,0.00,VWS V14.01,2013-07-31 21:22:00,
2013-07-31 14:27:00,62.2,58.0,30.08,West,260,0.0,0.0,86,0.00,,---,0.00,VWS V14.01,2013-07-31 21:27:00,
2013-07-31 14:30:00,62.5,58.3,30.08,West,263,0.0,0.0,86,0.00,,---,0.00,VWS V14.01,2013-07-31 21:30:00,
2013-07-31 14:32:00,62.6,58.4,30.07,West,262,0.0,0.0,86,0.00,,---,0.00,VWS V14.01,2013-07-31 21:32:00,
2013-07-31 14:37:00,63.3,58.7,30.07,WNW,288,0.0,0.0,85,0.00,,---,0.00,VWS V14.01,2013-07-31 21:37:00,
2013-07-31 14:42:00,63.3,58.4,30.07,NW,326,0.0,0.0,84,0.00,,---,0.00,VWS V14.01,2013-07-31 21:42:00,
2013-07-31 14:45:00,63.5,58.2,30.07,West,261,0.0,0.0,83,0.00,,---,0.00,VWS V14.01,2013-07-31 21:45:00,
2013-07-31 14:47:00,63.6,58.7,30.07,NW,314,0.0,0.0,84,0.00,,---,0.00,VWS V14.01,2013-07-31 21:47:00,
2013-07-31 14:52:00,63.8,58.2,30.07,WSW,247,0.0,0.0,82,0.00,,---,0.00,VWS V14.01,2013-07-31 21:52:00,
2013-07-31 14:57:00,63.5,58.2,30.07,West,271,0.0,0.0,83,0.00,,---,0.00,VWS V14.01,2013-07-31 21:57:00,
2013-07-31 15:00:00,63.6,58.3,30.07,WNW,282,0.0,0.0,83,0.00,,---,0.00,VWS V14.01,2013-07-31 22:00:00,
2013-07-31 15:02:00,63.6,58.7,30.07,West,260,0.0,0.0,84,0.00,,---,0.00,VWS V14.01,2013-07-31 22:02:00,
2013-07-31 15:07:00,63.3,58.4,30.07,WSW,245,0.0,0.0,84,0.00,,---,0.00,VWS V14.01,2013-07-31 22:07:00,
2013-07-31 15:12:00,62.9,58.3,30.07,West,281,0.0,0.0,85,0.00,,---,0.00,VWS V14.01,2013-07-31 22:12:00,
2013-07-31 15:15:00,63.0,58.4,30.07,WNW,296,0.0,0.0,85,0.00,,---,0.00,VWS V14.01,2013-07-31 22:15:00,
2013-07-31 15:17:00,63.0,58.4,30.07,WSW,251,0.0,0.0,85,0.00,,---,0.00,VWS V14.01,2013-07-31 22:17:00,
2013-07-31 15:22:00,63.2,58.3,30.07,West,263,0.0,0.0,84,0.00,,---,0.00,VWS V14.01,2013-07-31 22:22:00,
2013-07-31 15:27:00,63.5,58.6,30.07,West,277,0.0,0.0,84,0.00,,---,0.00,VWS V14.01,2013-07-31 22:27:00,
2013-07-31 15:30:00,63.6,58.3,30.07,West,266,0.0,0.0,83,0.00,,---,0.00,VWS V14.01,2013-07-31 22:30:00,
2013-07-31 15:32:00,63.6,58.7,30.07,West,266,0.0,0.0,84,0.00,,---,0.00,VWS V14.01,2013-07-31 22:32:00,
2013-07-31 15:37:00,63.6,58.7,30.06,WSW,246,0.0,0.0,84,0.00,,---,0.00,VWS V14.01,2013-07-31 22:37:00,
2013-07-31 15:42:00,64.3,59.0,30.06,West,272,0.0,0.0,83,0.00,,---,0.00,VWS V14.01,2013-07-31 22:42:00,
2013-07-31 15:45:00,64.3,58.7,30.07,West,261,0.0,0.0,82,0.00,,---,0.00,VWS V14.01,2013-07-31 22:45:00,
2013-07-31 15:47:00,64.3,58.7,30.07,West,265,0.0,0.0,82,0.00,,---,0.00,VWS V14.01,2013-07-31 22:47:00,
2013-07-31 15:52:00,64.4,58.8,30.06,West,273,0.0,0.0,82,0.00,,---,0.00,VWS V14.01,2013-07-31 22:52:00,
2013-07-31 15:57:00,64.5,58.9,30.06,West,267,0.0,0.0,82,0.00,,---,0.00,VWS V14.01,2013-07-31 22:57:00,
2013-07-31 16:02:00,65.0,59.4,30.06,West,268,0.0,0.0,82,0.00,,---,0.00,VWS V14.01,2013-07-31 23:02:00,
2013-07-31 16:07:00,65.4,59.4,30.06,West,265,0.0,0.0,81,0.00,,---,0.00,VWS V14.01,2013-07-31 23:07:00,
2013-07-31 16:12:00,66.1,59.8,30.06,West,269,0.0,0.0,80,0.00,,---,0.00,VWS V14.01,2013-07-31 23:12:00,
2013-07-31 16:15:00,66.7,59.6,30.06,West,269,0.0,0.0,78,0.00,,---,0.00,VWS V14.01,2013-07-31 23:15:00,
2013-07-31 16:17:00,66.8,59.7,30.06,West,269,0.0,0.0,78,0.00,,---,0.00,VWS V14.01,2013-07-31 23:17:00,
2013-07-31 16:22:00,67.0,59.6,30.06,West,263,0.0,0.0,77,0.00,,---,0.00,VWS V14.01,2013-07-31 23:22:00,
2013-07-31 16:27:00,67.1,59.7,30.06,NW,311,0.0,0.0,77,0.00,,---,0.00,VWS V14.01,2013-07-31 23:27:00,
2013-07-31 16:30:00,67.2,59.4,30.06,NW,311,0.0,0.0,76,0.00,,---,0.00,VWS V14.01,2013-07-31 23:30:00,
2013-07-31 16:32:00,67.3,59.8,30.06,NW,311,0.0,0.0,77,0.00,,---,0.00,VWS V14.01,2013-07-31 23:32:00,
2013-07-31 16:37:00,67.7,59.9,30.06,South,188,0.0,0.0,76,0.00,,---,0.00,VWS V14.01,2013-07-31 23:37:00,
2013-07-31 16:42:00,67.8,59.6,30.06,South,177,0.0,0.0,75,0.00,,---,0.00,VWS V14.01,2013-07-31 23:42:00,
2013-07-31 16:45:00,64.3,58.7,30.07,West,261,0.0,0.0,82,0.00,,---,0.00,VWS V14.01,2013-07-31 23:45:00,
2013-07-31 16:47:00,67.9,59.7,30.06,South,189,0.0,0.0,75,0.00,,---,0.00,VWS V14.01,2013-07-31 23:47:00,
2013-07-31 16:52:00,68.4,60.2,30.06,South,190,0.0,0.0,75,0.00,,---,0.00,VWS V14.01,2013-07-31 23:52:00,
2013-07-31 16:57:00,68.9,60.3,30.07,South,189,0.0,0.0,74,0.00,,---,0.00,VWS V14.01,2013-07-31 23:57:00,
2013-07-31 17:00:00,69.2,60.2,30.06,NNW,328,0.0,0.0,73,0.00,,---,0.00,VWS V14.01,2013-08-01 00:00:00,
2013-07-31 17:02:00,69.3,60.3,30.06,NNW,327,0.0,0.0,73,0.00,,---,0.00,VWS V14.01,2013-08-01 00:02:00,
2013-07-31 17:07:00,70.1,60.7,30.06,SSE,161,0.0,0.0,72,0.00,,---,0.00,VWS V14.01,2013-08-01 00:07:00,
2013-07-31 17:12:00,70.6,60.8,30.06,ESE,110,0.0,0.0,71,0.00,,---,0.00,VWS V14.01,2013-08-01 00:12:00,
2013-07-31 17:15:00,70.6,61.2,30.06,SE,124,0.0,0.0,72,0.00,,---,0.00,VWS V14.01,2013-08-01 00:15:00,
2013-07-31 17:17:00,70.4,61.0,30.06,SSE,153,0.0,0.0,72,0.00,,---,0.00,VWS V14.01,2013-08-01 00:17:00,
2013-07-31 17:22:00,70.1,60.7,30.05,SW,215,0.0,0.0,72,0.00,,---,0.00,VWS V14.01,2013-08-01 00:22:00,
2013-07-31 17:27:00,69.9,60.5,30.05,WNW,284,0.0,0.0,72,0.00,,---,0.00,VWS V14.01,2013-08-01 00:27:00,
2013-07-31 17:30:00,69.5,60.1,30.05,West,271,0.0,0.0,72,0.00,,---,0.00,VWS V14.01,2013-08-01 00:30:00,
2013-07-31 17:32:00,69.5,60.5,30.05,West,271,0.0,0.0,73,0.00,,---,0.00,VWS V14.01,2013-08-01 00:32:00,
2013-07-31 17:37:00,69.5,60.1,30.05,WNW,284,0.0,0.0,72,0.00,,---,0.00,VWS V14.01,2013-08-01 00:37:00,
2013-07-31 17:42:00,69.6,60.2,30.05,NW,321,0.0,0.0,72,0.00,,---,0.00,VWS V14.01,2013-08-01 00:42:00,
2013-07-31 17:45:00,69.6,60.2,30.05,NW,321,0.0,0.0,72,0.00,,---,0.00,VWS V14.01,2013-08-01 00:45:00,
2013-07-31 17:47:00,69.6,60.2,30.05,West,275,0.0,0.0,72,0.00,,---,0.00,VWS V14.01,2013-08-01 00:47:00,
2013-07-31 17:52:00,68.8,59.4,30.05,West,265,0.0,0.0,72,0.00,,---,0.00,VWS V14.01,2013-08-01 00:52:00,
2013-07-31 17:57:00,68.2,59.2,30.04,West,259,0.0,0.0,73,0.00,,---,0.00,VWS V14.01,2013-08-01 00:57:00,
2013-07-31 18:00:00,67.4,59.6,30.04,WSW,257,0.0,0.0,76,0.00,,---,0.00,VWS V14.01,2013-08-01 01:00:00,
2013-07-31 18:02:00,67.2,59.4,30.04,NW,311,0.0,0.0,76,0.00,,---,0.00,VWS V14.01,2013-08-01 01:02:00,
2013-07-31 18:07:00,66.8,59.0,30.04,West,264,0.0,0.0,76,0.00,,---,0.00,VWS V14.01,2013-08-01 01:07:00,
2013-07-31 18:12:00,66.5,59.4,30.03,WNW,284,0.0,0.0,78,0.00,,---,0.00,VWS V14.01,2013-08-01 01:12:00,
2013-07-31 18:15:00,66.5,59.4,30.04,WNW,284,0.0,0.0,78,0.00,,---,0.00,VWS V14.01,2013-08-01 01:15:00,
2013-07-31 18:17:00,66.6,59.5,30.04,WNW,284,0.0,0.0,78,0.00,,---,0.00,VWS V14.01,2013-08-01 01:17:00,
2013-07-31 18:22:00,66.8,59.7,30.04,WNW,284,0.0,0.0,78,0.00,,---,0.00,VWS V14.01,2013-08-01 01:22:00,
2013-07-31 18:27:00,67.2,59.8,30.03,WNW,284,0.0,0.0,77,0.00,,---,0.00,VWS V14.01,2013-08-01 01:27:00,
2013-07-31 18:30:00,67.4,60.0,30.04,WNW,284,0.0,0.0,77,0.00,,---,0.00,VWS V14.01,2013-08-01 01:30:00,
2013-07-31 18:32:00,67.5,60.0,30.03,WNW,284,0.0,0.0,77,0.00,,---,0.00,VWS V14.01,2013-08-01 01:32:00,
2013-07-31 18:37:00,67.7,59.9,30.03,WNW,284,0.0,0.0,76,0.00,,---,0.00,VWS V14.01,2013-08-01 01:37:00,
2013-07-31 18:42:00,67.7,59.9,30.03,WNW,284,0.0,0.0,76,0.00,,---,0.00,VWS V14.01,2013-08-01 01:42:00,
2013-07-31 18:45:00,67.8,59.6,30.03,WNW,286,0.0,0.0,75,0.00,,---,0.00,VWS V14.01,2013-08-01 01:45:00,
2013-07-31 18:47:00,67.8,59.6,30.03,WNW,286,0.0,0.0,75,0.00,,---,0.00,VWS V14.01,2013-08-01 01:47:00,
2013-07-31 18:52:00,68.0,59.8,30.02,WNW,286,0.0,0.0,75,0.00,,---,0.00,VWS V14.01,2013-08-01 01:52:00,
2013-07-31 18:57:00,68.3,60.1,30.02,WNW,284,0.0,0.0,75,0.00,,---,0.00,VWS V14.01,2013-08-01 01:57:00,
2013-07-31 19:00:00,68.5,59.9,30.02,NW,313,0.0,0.0,74,0.00,,---,0.00,VWS V14.01,2013-08-01 02:00:00,
2013-07-31 19:02:00,68.5,59.9,30.02,NW,312,0.0,0.0,74,0.00,,---,0.00,VWS V14.01,2013-08-01 02:02:00,
2013-07-31 19:07:00,68.6,60.0,30.02,North,355,0.0,0.0,74,0.00,,---,0.00,VWS V14.01,2013-08-01 02:07:00,
2013-07-31 19:12:00,68.6,60.4,30.02,North,5,0.0,0.0,75,0.00,,---,0.00,VWS V14.01,2013-08-01 02:12:00,
2013-07-31 19:15:00,68.6,60.4,30.02,NNE,18,0.0,0.0,75,0.00,,---,0.00,VWS V14.01,2013-08-01 02:15:00,
2013-07-31 19:17:00,68.6,60.4,30.02,North,5,0.0,0.0,75,0.00,,---,0.00,VWS V14.01,2013-08-01 02:17:00,
2013-07-31 19:22:00,68.6,60.7,30.01,East,99,0.0,0.0,76,0.00,,---,0.00,VWS V14.01,2013-08-01 02:22:00,
2013-07-31 19:27:00,68.6,61.1,30.01,SSE,155,0.0,0.0,77,0.00,,---,0.00,VWS V14.01,2013-08-01 02:27:00,
2013-07-31 19:30:00,68.6,61.1,30.02,ENE,73,0.0,0.0,77,0.00,,---,0.00,VWS V14.01,2013-08-01 02:30:00,
2013-07-31 19:32:00,68.6,61.1,30.02,NNE,26,0.0,0.0,77,0.00,,---,0.00,VWS V14.01,2013-08-01 02:32:00,
2013-07-31 19:38:00,68.4,61.3,30.02,NNW,329,0.0,0.0,78,0.00,,---,0.00,VWS V14.01,2013-08-01 02:38:00,
2013-07-31 19:43:00,68.1,61.3,30.01,East,89,0.0,0.0,79,0.00,,---,0.00,VWS V14.01,2013-08-01 02:43:00,
2013-07-31 19:45:00,67.9,61.2,30.01,East,85,0.0,0.0,79,0.00,,---,0.00,VWS V14.01,2013-08-01 02:45:00,
2013-07-31 19:47:00,67.9,61.5,30.01,ESE,122,0.0,0.0,80,0.00,,---,0.00,VWS V14.01,2013-08-01 02:47:00,
2013-07-31 19:52:00,67.8,61.4,30.01,East,89,0.0,0.0,80,0.00,,---,0.00,VWS V14.01,2013-08-01 02:52:00,
2013-07-31 19:57:00,67.8,61.4,30.02,SE,124,0.0,0.0,80,0.00,,---,0.00,VWS V14.01,2013-08-01 02:57:00,
2013-07-31 20:00:00,67.7,61.3,30.02,ESE,117,0.0,0.0,80,0.00,,---,0.00,VWS V14.01,2013-08-01 03:00:00,
2013-07-31 20:02:00,67.6,61.2,30.02,ESE,123,0.0,0.0,80,0.00,,---,0.00,VWS V14.01,2013-08-01 03:02:00,
2013-07-31 20:07:00,67.6,61.6,30.02,ESE,119,0.0,0.0,81,0.00,,---,0.00,VWS V14.01,2013-08-01 03:07:00,
2013-07-31 20:12:00,67.6,61.6,30.02,ESE,119,0.0,0.0,81,0.00,,---,0.00,VWS V14.01,2013-08-01 03:12:00,
2013-07-31 20:15:00,67.7,61.7,30.02,ESE,119,0.0,0.0,81,0.00,,---,0.00,VWS V14.01,2013-08-01 03:15:00,
2013-07-31 20:17:00,67.8,61.4,30.02,ESE,119,0.0,0.0,80,0.00,,---,0.00,VWS V14.01,2013-08-01 03:17:00,
2013-07-31 20:22:00,67.9,61.5,30.02,ESE,103,0.0,0.0,80,0.00,,---,0.00,VWS V14.01,2013-08-01 03:22:00,
2013-07-31 20:27:00,67.7,61.3,30.02,ESE,103,0.0,0.0,80,0.00,,---,0.00,VWS V14.01,2013-08-01 03:27:00,
2013-07-31 20:30:00,67.7,61.3,30.02,ESE,103,0.0,0.0,80,0.00,,---,0.00,VWS V14.01,2013-08-01 03:30:00,
2013-07-31 20:32:00,67.7,61.3,30.02,ESE,103,0.0,0.0,80,0.00,,---,0.00,VWS V14.01,2013-08-01 03:32:00,
2013-07-31 20:37:00,67.7,61.3,30.02,ESE,103,0.0,0.0,80,0.00,,---,0.00,VWS V14.01,2013-08-01 03:37:00,
2013-07-31 20:42:00,67.7,61.0,30.02,ESE,103,0.0,0.0,79,0.00,,---,0.00,VWS V14.01,2013-08-01 03:42:00,
2013-07-31 20:45:00,67.7,61.0,30.02,ESE,103,0.0,0.0,79,0.00,,---,0.00,VWS V14.01,2013-08-01 03:45:00,
2013-07-31 20:47:00,67.7,61.0,30.02,ESE,103,0.0,0.0,79,0.00,,---,0.00,VWS V14.01,2013-08-01 03:47:00,
2013-07-31 20:52:00,67.7,61.0,30.01,ESE,103,0.0,0.0,79,0.00,,---,0.00,VWS V14.01,2013-08-01 03:52:00,
2013-07-31 20:57:00,67.8,61.1,30.01,West,267,0.0,0.0,79,0.00,,---,0.00,VWS V14.01,2013-08-01 03:57:00,
2013-07-31 21:00:00,67.9,60.8,30.00,West,278,0.0,0.0,78,0.00,,---,0.00,VWS V14.01,2013-08-01 04:00:00,
2013-07-31 21:01:00,67.9,60.8,30.00,WNW,290,0.0,0.0,78,0.00,,---,0.00,VWS V14.01,2013-08-01 04:01:00,
2013-07-31 21:02:00,67.9,60.8,30.00,West,277,0.0,0.0,78,0.00,,---,0.00,VWS V14.01,2013-08-01 04:02:00,
2013-07-31 21:07:00,67.7,61.3,30.00,West,263,0.0,0.0,80,0.00,,---,0.00,VWS V14.01,2013-08-01 04:07:00,
2013-07-31 21:12:00,67.5,61.1,30.01,WNW,282,0.0,0.0,80,0.00,,---,0.00,VWS V14.01,2013-08-01 04:12:00,
2013-07-31 21:15:00,67.4,61.0,30.01,WNW,282,0.0,0.0,80,0.00,,---,0.00,VWS V14.01,2013-08-01 04:15:00,
2013-07-31 21:17:00,67.4,61.4,30.01,WNW,282,0.0,0.0,81,0.00,,---,0.00,VWS V14.01,2013-08-01 04:17:00,
2013-07-31 21:22:00,66.9,60.5,30.01,West,265,0.0,0.0,80,0.00,,---,0.00,VWS V14.01,2013-08-01 04:22:00,
2013-07-31 21:27:00,65.6,59.6,30.02,West,264,0.0,0.0,81,0.00,,---,0.00,VWS V14.01,2013-08-01 04:27:00,
2013-07-31 21:30:00,67.7,61.3,30.02,ESE,103,0.0,0.0,80,0.00,,---,0.00,VWS V14.01,2013-08-01 04:30:00,
2013-07-31 21:32:00,64.9,59.6,30.02,West,264,0.0,0.0,83,0.00,,---,0.00,VWS V14.01,2013-08-01 04:32:00,
2013-07-31 21:37:00,64.7,60.1,30.02,West,264,0.0,0.0,85,0.00,,---,0.00,VWS V14.01,2013-08-01 04:37:00,
2013-07-31 21:42:00,64.7,60.4,30.02,West,264,0.0,0.0,86,0.00,,---,0.00,VWS V14.01,2013-08-01 04:42:00,
2013-07-31 21:45:00,65.0,60.4,30.02,West,264,0.0,0.0,85,0.00,,---,0.00,VWS V14.01,2013-08-01 04:45:00,
2013-07-31 21:47:00,65.0,60.4,30.02,West,264,0.0,0.0,85,0.00,,---,0.00,VWS V14.01,2013-08-01 04:47:00,
2013-07-31 21:52:00,65.0,60.0,30.02,West,264,0.0,0.0,84,0.00,,---,0.00,VWS V14.01,2013-08-01 04:52:00,
2013-07-31 21:57:00,64.9,59.6,30.02,West,264,0.0,0.0,83,0.00,,---,0.00,VWS V14.01,2013-08-01 04:57:00,
2013-07-31 22:00:00,67.9,60.8,30.00,West,278,0.0,0.0,78,0.00,,---,0.00,VWS V14.01,2013-08-01 05:00:00,
2013-07-31 22:02:00,64.7,59.8,30.02,West,264,0.0,0.0,84,0.00,,---,0.00,VWS V14.01,2013-08-01 05:02:00,
2013-07-31 22:07:00,64.7,59.4,30.02,West,263,0.0,0.0,83,0.00,,---,0.00,VWS V14.01,2013-08-01 05:07:00,
2013-07-31 22:12:00,64.4,59.1,30.02,West,259,0.0,0.0,83,0.00,,---,0.00,VWS V14.01,2013-08-01 05:12:00,
2013-07-31 22:15:00,67.4,61.0,30.01,WNW,282,0.0,0.0,80,0.00,,---,0.00,VWS V14.01,2013-08-01 05:15:00,
2013-07-31 22:17:00,64.3,59.4,30.03,West,259,0.0,0.0,84,0.00,,---,0.00,VWS V14.01,2013-08-01 05:17:00,
2013-07-31 22:22:00,64.1,59.2,30.02,West,273,0.0,0.0,84,0.00,,---,0.00,VWS V14.01,2013-08-01 05:22:00,
2013-07-31 22:27:00,64.1,59.2,30.03,West,273,0.0,0.0,84,0.00,,---,0.00,VWS V14.01,2013-08-01 05:27:00,
2013-07-31 22:30:00,64.1,59.2,30.03,West,271,0.0,0.0,84,0.00,,---,0.00,VWS V14.01,2013-08-01 05:30:00,
2013-07-31 22:32:00,64.0,59.1,30.03,West,270,0.0,0.0,84,0.00,,---,0.00,VWS V14.01,2013-08-01 05:32:00,
2013-07-31 22:37:00,63.9,59.0,30.03,West,267,0.0,0.0,84,0.00,,---,0.00,VWS V14.01,2013-08-01 05:37:00,
2013-07-31 22:42:00,63.9,59.0,30.03,West,267,0.0,0.0,84,0.00,,---,0.00,VWS V14.01,2013-08-01 05:42:00,
2013-07-31 22:45:00,65.0,60.4,30.02,West,264,0.0,0.0,85,0.00,,---,0.00,VWS V14.01,2013-08-01 05:45:00,
2013-07-31 22:47:00,63.3,58.4,30.03,West,263,0.0,0.0,84,0.00,,---,0.00,VWS V14.01,2013-08-01 05:47:00,
2013-07-31 22:52:00,63.0,58.8,30.04,West,267,0.0,0.0,86,0.00,,---,0.00,VWS V14.01,2013-08-01 05:52:00,
2013-07-31 22:57:00,62.7,58.8,30.04,West,280,0.0,0.0,87,0.00,,---,0.00,VWS V14.01,2013-08-01 05:57:00,
2013-07-31 23:00:00,62.6,59.0,30.04,West,273,0.0,0.0,88,0.00,,---,0.00,VWS V14.01,2013-08-01 06:00:00,
2013-07-31 23:02:00,62.6,59.0,30.04,WNW,298,0.0,0.0,88,0.00,,---,0.00,VWS V14.01,2013-08-01 06:02:00,
2013-07-31 23:07:00,62.7,59.1,30.04,WNW,288,0.0,0.0,88,0.00,,---,0.00,VWS V14.01,2013-08-01 06:07:00,
2013-07-31 23:12:00,62.7,59.1,30.05,SW,235,0.0,0.0,88,0.00,,---,0.00,VWS V14.01,2013-08-01 06:12:00,
2013-07-31 23:15:00,62.3,58.7,30.04,NW,314,0.0,0.0,88,0.00,,---,0.00,VWS V14.01,2013-08-01 06:15:00,
2013-07-31 23:17:00,62.3,58.7,30.04,WNW,284,0.0,0.0,88,0.00,,---,0.00,VWS V14.01,2013-08-01 06:17:00,
2013-07-31 23:22:00,61.9,58.3,30.05,NW,312,0.0,0.0,88,0.00,,---,0.00,VWS V14.01,2013-08-01 06:22:00,
2013-07-31 23:27:00,61.8,58.2,30.05,ENE,76,0.0,0.0,88,0.00,,---,0.00,VWS V14.01,2013-08-01 06:27:00,
2013-07-31 23:30:00,61.4,57.8,30.05,NW,306,0.0,0.0,88,0.00,,---,0.00,VWS V14.01,2013-08-01 06:30:00,
2013-07-31 23:32:00,61.3,57.7,30.05,WNW,291,0.0,0.0,88,0.00,,---,0.00,VWS V14.01,2013-08-01 06:32:00,
2013-07-31 23:37:00,60.5,57.2,30.05,WNW,294,0.0,0.0,89,0.00,,---,0.00,VWS V14.01,2013-08-01 06:37:00,
2013-07-31 23:42:00,60.3,57.4,30.05,West,274,0.0,0.0,90,0.00,,---,0.00,VWS V14.01,2013-08-01 06:42:00,
2013-07-31 23:45:00,60.0,57.4,30.05,West,265,0.0,0.0,91,0.00,,---,0.00,VWS V14.01,2013-08-01 06:45:00,
2013-07-31 23:47:00,60.0,57.4,30.05,WNW,285,0.0,0.0,91,0.00,,---,0.00,VWS V14.01,2013-08-01 06:47:00,
2013-07-31 23:52:00,59.8,56.9,30.05,WSW,253,0.0,0.0,90,0.00,,---,0.00,VWS V14.01,2013-08-01 06:52:00,
2013-07-31 23:57:00,59.7,56.8,30.05,WSW,258,0.0,0.0,90,0.00,,---,0.00,VWS V14.01,2013-08-01 06:57:00,